Portada
METAR-TAF:

METAR-TAF

Aeropuertos :

Aeropuerto Internacional de Loreto

Loreto, México

latitud: 26-01N, longitud: 111-21W, altitud: 15 m

Observación

El informe se hizo hace 12 horas y 34 minutos, a las 23:44 UTC
Viento 10 kt del sur-sureste
Temperatura 27°C
Humedad 74%
Presión 1008 hPa
Visibilidad: 12.9 km
Cielo despejado

METAR: MMLT 012344Z 16010KT 8SM SKC 27/22 A2976 RMK SLP078 HZY

Hora: 06:18 (12:18 UTC)

Pronóstico

El informe se hizo hace 7 horas y 28 minutos, a las 04:50 UTC
Pronóstico válido del 02 a las 06 UTC al 03 a las 06 UTC
Viento 5 kt del sureste
Visibilidad: 10 km
Cielo despejado
A partir de las 02 a las 1600 UTC
Viento 10 kt del sureste
Visibilidad: 10 km
Cielo despejado
A partir de las 03 a las 0200 UTC
Viento 5 kt del sureste
Visibilidad: 10 km
Cielo despejado

TAF: MMLT 020450Z 0206/0306 14005KT P6SM SKC FM021600 14010KT P6SM SKC FM030200 14005KT P6SM SKC

Observaciones y pronósticos meteorológicos de más de 4000 aeropuertos (mensajes METAR y TAF).

Los puntos amarillos y rojos representan las estaciones disponibles.

Ponga el ratón en el punto deseado para ver el nombre de la estación.

Haga clic para ver las observaciones y los pronósticos meteorológicos.

Para cambiar el mapa : haga clic en los botones verdes con una cruz de color negro para hacer un zoom, en el botón verde con un guión para alejar o en las flechas verdes para mapas adyacentes.


METAR-TAF: